Time;durP1;ratioP1;P1;durP2;ratioP2;P2;SDS_P1;SDS_P2;PMS_P1;PMS_P2;Temp;Humidity;BMP_temperature;BMP_pressure;BME280_temperature;BME280_humidity;BME280_pressure;Samples;Min_cycle;Max_cycle;Signal;HPM_P1;HPM_P2
2022/05/09 00:01:54;;;;;;;12.70;11.50;;;;;;;;;;5071584;28;20439;-78
2022/05/09 00:04:23;;;;;;;13.57;12.47;;;;;;;;;;5071324;28;20447;-76
2022/05/09 00:06:50;;;;;;;12.57;11.37;;;;;;;;;;5071234;28;20479;-76
2022/05/09 00:09:17;;;;;;;12.90;11.90;;;;;;;;;;5071443;28;20453;-77
2022/05/09 00:11:45;;;;;;;12.83;11.73;;;;;;;;;;5071328;28;20986;-75
2022/05/09 00:14:12;;;;;;;13.20;12.10;;;;;;;;;;5071357;28;20498;-77
2022/05/09 00:16:39;;;;;;;13.17;12.00;;;;;;;;;;5071530;28;20546;-76
2022/05/09 00:19:07;;;;;;;13.23;12.13;;;;;;;;;;5071580;28;20440;-75
2022/05/09 00:21:37;;;;;;;11.93;11.00;;;;;;;;;;5071767;28;20482;-76
2022/05/09 00:24:04;;;;;;;13.17;11.97;;;;;;;;;;5071090;28;20474;-76
2022/05/09 00:26:32;;;;;;;12.90;11.80;;;;;;;;;;5071784;28;20439;-76
2022/05/09 00:28:59;;;;;;;13.00;12.00;;;;;;;;;;5071389;28;20468;-74
2022/05/09 00:31:26;;;;;;;13.03;11.93;;;;;;;;;;5071402;28;20869;-76
2022/05/09 00:33:53;;;;;;;14.40;12.87;;;;;;;;;;5075050;28;20444;-77
2022/05/09 00:36:21;;;;;;;13.50;12.20;;;;;;;;;;5075175;28;20475;-78
2022/05/09 00:38:49;;;;;;;13.43;12.43;;;;;;;;;;5074293;28;20544;-75
2022/05/09 00:44:02;;;;;;;14.23;13.00;;;;;;;;;;5072685;28;20440;-77
2022/05/09 00:52:24;;;;;;;12.90;11.90;;;;;;;;;;5021617;28;20917;-76
2022/05/09 00:54:56;;;;;;;13.73;12.60;;;;;;;;;;5054472;28;20511;-77
2022/05/09 00:57:25;;;;;;;14.03;12.83;;;;;;;;;;5054865;28;20469;-76
2022/05/09 00:59:55;;;;;;;13.93;12.70;;;;;;;;;;5054749;28;20449;-76
2022/05/09 01:02:22;;;;;;;13.30;12.23;;;;;;;;;;5054750;28;20441;-76
2022/05/09 01:04:52;;;;;;;13.80;12.73;;;;;;;;;;5054436;28;20616;-76
2022/05/09 01:07:19;;;;;;;14.63;13.47;;;;;;;;;;5064802;28;20479;-77
2022/05/09 01:09:47;;;;;;;12.73;11.73;;;;;;;;;;5074552;28;20448;-76
2022/05/09 01:12:16;;;;;;;13.57;12.53;;;;;;;;;;5074294;28;20520;-76
2022/05/09 01:14:44;;;;;;;13.27;12.20;;;;;;;;;;5072648;28;20448;-76
2022/05/09 01:17:11;;;;;;;14.17;12.83;;;;;;;;;;5071033;28;20476;-75
2022/05/09 01:19:39;;;;;;;14.17;12.80;;;;;;;;;;5065719;28;20441;-76
2022/05/09 01:22:19;;;;;;;14.83;13.50;;;;;;;;;;5073758;28;20467;-76
2022/05/09 01:24:46;;;;;;;15.13;13.33;;;;;;;;;;5065413;28;20444;-76
2022/05/09 01:27:16;;;;;;;13.27;12.17;;;;;;;;;;5226001;22;20852;-75
2022/05/09 01:29:47;;;;;;;14.63;13.33;;;;;;;;;;5069674;28;20448;-76
2022/05/09 01:32:15;;;;;;;14.20;13.10;;;;;;;;;;5053715;28;20464;-77
2022/05/09 01:34:44;;;;;;;13.97;12.83;;;;;;;;;;5053616;28;20445;-76
2022/05/09 01:37:13;;;;;;;14.33;13.03;;;;;;;;;;5053425;28;20485;-75
2022/05/09 01:39:40;;;;;;;15.37;13.93;;;;;;;;;;5053452;28;20445;-75
2022/05/09 01:42:08;;;;;;;14.47;13.27;;;;;;;;;;5053438;28;20836;-75
2022/05/09 01:44:37;;;;;;;14.43;13.23;;;;;;;;;;5052090;28;20453;-77
2022/05/09 01:49:49;;;;;;;16.03;14.63;;;;;;;;;;5053667;28;20651;-75
2022/05/09 01:52:19;;;;;;;15.50;14.10;;;;;;;;;;5053334;28;20472;-76
2022/05/09 01:54:46;;;;;;;16.70;14.97;;;;;;;;;;5052814;28;20450;-75
2022/05/09 01:57:13;;;;;;;15.53;14.00;;;;;;;;;;5052910;28;20481;-77
2022/05/09 01:59:41;;;;;;;15.10;13.70;;;;;;;;;;5053033;28;20496;-76
2022/05/09 02:02:09;;;;;;;13.83;12.63;;;;;;;;;;5052998;28;20468;-76
2022/05/09 02:04:38;;;;;;;15.47;14.07;;;;;;;;;;5052851;28;20891;-77
2022/05/09 02:07:09;;;;;;;13.93;12.83;;;;;;;;;;5052783;28;21016;-75
2022/05/09 02:09:37;;;;;;;15.00;13.80;;;;;;;;;;5052708;28;20499;-77
2022/05/09 02:12:05;;;;;;;14.70;13.23;;;;;;;;;;5052563;28;20855;-78
2022/05/09 02:14:32;;;;;;;15.43;14.13;;;;;;;;;;5052742;28;20446;-75
2022/05/09 02:16:59;;;;;;;15.60;14.30;;;;;;;;;;5052897;28;20481;-77
2022/05/09 02:19:26;;;;;;;15.73;14.53;;;;;;;;;;5052786;28;20450;-76
2022/05/09 02:21:53;;;;;;;14.00;12.90;;;;;;;;;;5052732;28;20981;-76
2022/05/09 02:24:21;;;;;;;14.53;13.40;;;;;;;;;;5052338;28;21171;-74
2022/05/09 02:26:49;;;;;;;15.90;14.60;;;;;;;;;;5053023;28;20540;-76
2022/05/09 02:29:16;;;;;;;15.50;14.20;;;;;;;;;;5052529;28;20511;-75
2022/05/09 02:31:43;;;;;;;15.90;14.50;;;;;;;;;;5052697;28;20495;-75
2022/05/09 02:34:10;;;;;;;16.53;14.93;;;;;;;;;;5052088;28;20917;-76
2022/05/09 02:36:37;;;;;;;15.10;13.93;;;;;;;;;;5051731;28;20492;-76
2022/05/09 02:39:04;;;;;;;16.23;14.80;;;;;;;;;;5051944;28;20449;-75
2022/05/09 02:41:31;;;;;;;16.47;15.07;;;;;;;;;;5052171;28;20843;-76
2022/05/09 02:44:00;;;;;;;15.83;14.43;;;;;;;;;;5052553;28;20496;-76
2022/05/09 02:46:27;;;;;;;14.57;13.40;;;;;;;;;;5053669;28;20495;-75
2022/05/09 02:48:55;;;;;;;14.20;13.10;;;;;;;;;;5052075;28;20531;-77
2022/05/09 02:51:22;;;;;;;14.90;13.70;;;;;;;;;;5051976;28;20437;-76
2022/05/09 02:53:49;;;;;;;15.70;14.40;;;;;;;;;;5051528;28;20453;-76
2022/05/09 02:56:16;;;;;;;16.37;14.97;;;;;;;;;;5051834;28;20508;-76
2022/05/09 02:58:43;;;;;;;15.17;13.97;;;;;;;;;;5051882;28;20449;-75
2022/05/09 03:01:11;;;;;;;16.40;15.00;;;;;;;;;;5052035;28;20446;-75
2022/05/09 03:06:23;;;;;;;15.60;14.30;;;;;;;;;;5051818;28;20940;-76
2022/05/09 03:08:50;;;;;;;15.50;14.30;;;;;;;;;;5051845;28;20827;-75
2022/05/09 03:11:18;;;;;;;15.67;14.37;;;;;;;;;;5051674;28;20495;-77
2022/05/09 03:13:45;;;;;;;15.83;14.13;;;;;;;;;;5055570;28;20444;-75
2022/05/09 03:16:13;;;;;;;15.33;14.03;;;;;;;;;;5063399;28;20588;-77
2022/05/09 03:18:40;;;;;;;15.77;14.43;;;;;;;;;;5058104;28;20446;-77
2022/05/09 03:21:07;;;;;;;14.90;13.70;;;;;;;;;;5063417;28;20452;-78
2022/05/09 03:23:35;;;;;;;15.30;14.00;;;;;;;;;;5071276;28;20452;-75
2022/05/09 03:26:02;;;;;;;15.07;13.87;;;;;;;;;;5071577;28;20448;-76
2022/05/09 03:28:29;;;;;;;14.90;13.60;;;;;;;;;;5063491;28;20484;-75
2022/05/09 03:30:59;;;;;;;16.10;14.60;;;;;;;;;;5063077;28;20977;-76
2022/05/09 03:33:27;;;;;;;15.67;14.37;;;;;;;;;;5070876;28;20444;-76
2022/05/09 03:35:56;;;;;;;15.33;14.13;;;;;;;;;;5071109;28;20437;-77
2022/05/09 03:38:23;;;;;;;16.03;14.60;;;;;;;;;;5071370;28;20474;-75
2022/05/09 03:40:50;;;;;;;16.03;14.73;;;;;;;;;;5071240;28;20441;-77
2022/05/09 03:43:17;;;;;;;15.93;14.50;;;;;;;;;;5070801;28;20437;-75
2022/05/09 03:45:46;;;;;;;15.23;13.73;;;;;;;;;;5071020;28;20448;-75
2022/05/09 03:48:13;;;;;;;15.93;14.63;;;;;;;;;;5071398;28;20825;-75
2022/05/09 03:50:41;;;;;;;15.97;14.37;;;;;;;;;;5075763;28;20615;-76
2022/05/09 03:53:08;;;;;;;16.17;14.77;;;;;;;;;;5078971;28;20437;-74
2022/05/09 03:55:35;;;;;;;16.20;14.70;;;;;;;;;;5075178;28;20463;-75
2022/05/09 03:58:03;;;;;;;16.67;15.07;;;;;;;;;;5070785;28;21020;-76
2022/05/09 04:00:32;;;;;;;16.40;14.90;;;;;;;;;;5071194;28;20444;-75
2022/05/09 04:02:59;;;;;;;14.60;13.40;;;;;;;;;;5070790;28;20452;-76
2022/05/09 04:05:30;;;;;;;15.03;13.53;;;;;;;;;;5071113;28;20444;-75
2022/05/09 04:07:59;;;;;;;15.97;14.60;;;;;;;;;;5054480;28;21032;-75
2022/05/09 04:10:27;;;;;;;17.43;15.87;;;;;;;;;;5051276;28;20445;-75
2022/05/09 04:12:54;;;;;;;15.70;14.40;;;;;;;;;;5050286;28;20454;-74
2022/05/09 04:18:07;;;;;;;17.00;15.40;;;;;;;;;;5051254;28;20544;-75
2022/05/09 04:20:34;;;;;;;17.50;16.10;;;;;;;;;;5051575;28;20441;-74
2022/05/09 04:23:03;;;;;;;22.50;20.63;;;;;;;;;;5052211;28;20605;-75
2022/05/09 04:25:31;;;;;;;16.50;15.10;;;;;;;;;;5051185;28;20490;-76
2022/05/09 04:27:58;;;;;;;17.43;15.90;;;;;;;;;;5051070;28;20470;-78
2022/05/09 04:30:25;;;;;;;16.33;14.83;;;;;;;;;;5050778;28;20845;-75
2022/05/09 04:32:53;;;;;;;18.63;16.93;;;;;;;;;;5050549;28;20449;-76
2022/05/09 04:35:21;;;;;;;18.20;16.60;;;;;;;;;;5050731;28;20532;-74
2022/05/09 04:37:49;;;;;;;17.53;15.73;;;;;;;;;;5050203;28;20481;-75
2022/05/09 04:40:19;;;;;;;17.67;16.07;;;;;;;;;;5050917;28;20441;-75
2022/05/09 04:42:46;;;;;;;17.73;16.33;;;;;;;;;;5050795;28;20477;-76
2022/05/09 04:45:13;;;;;;;17.37;15.87;;;;;;;;;;5050757;28;20959;-77
2022/05/09 04:47:40;;;;;;;18.87;17.10;;;;;;;;;;5050513;28;20461;-76
2022/05/09 04:50:08;;;;;;;17.53;15.93;;;;;;;;;;5048158;28;20445;-76
2022/05/09 04:52:36;;;;;;;19.30;17.53;;;;;;;;;;5064134;28;20467;-77
2022/05/09 04:55:03;;;;;;;19.00;17.33;;;;;;;;;;5059218;28;20438;-76
2022/05/09 04:57:31;;;;;;;18.00;16.30;;;;;;;;;;5062842;28;21009;-77
2022/05/09 04:59:58;;;;;;;19.57;17.90;;;;;;;;;;5057022;28;20452;-76
2022/05/09 05:02:25;;;;;;;18.57;16.87;;;;;;;;;;5058764;28;20445;-75
2022/05/09 05:04:52;;;;;;;27.17;24.40;;;;;;;;;;5070127;28;20506;-75
2022/05/09 05:07:19;;;;;;;18.23;16.73;;;;;;;;;;5059721;28;20462;-77
2022/05/09 05:09:47;;;;;;;18.27;16.63;;;;;;;;;;5050152;28;20442;-75
2022/05/09 05:12:14;;;;;;;18.90;17.30;;;;;;;;;;5050228;28;20446;-77
2022/05/09 05:14:42;;;;;;;18.13;16.43;;;;;;;;;;5049882;28;20445;-75
2022/05/09 05:17:09;;;;;;;19.53;17.60;;;;;;;;;;5049899;28;21000;-74
2022/05/09 05:19:38;;;;;;;18.57;16.77;;;;;;;;;;5051612;28;20441;-75
2022/05/09 05:22:06;;;;;;;18.10;16.50;;;;;;;;;;5054046;28;20445;-76
2022/05/09 05:24:34;;;;;;;19.03;17.50;;;;;;;;;;5053777;28;20445;-75
2022/05/09 05:27:01;;;;;;;18.10;16.60;;;;;;;;;;5054145;28;20485;-76
2022/05/09 05:29:29;;;;;;;19.50;17.50;;;;;;;;;;5053794;28;20511;-76
2022/05/09 05:31:57;;;;;;;17.87;16.27;;;;;;;;;;5053696;28;20452;-75
2022/05/09 05:34:24;;;;;;;21.40;19.40;;;;;;;;;;5053682;28;20452;-75
2022/05/09 05:36:51;;;;;;;20.73;18.97;;;;;;;;;;5053876;28;20991;-77
2022/05/09 05:39:19;;;;;;;19.23;17.40;;;;;;;;;;5053580;28;20442;-75
2022/05/09 05:41:46;;;;;;;20.33;18.53;;;;;;;;;;5053148;28;20491;-75
2022/05/09 05:44:14;;;;;;;19.43;17.83;;;;;;;;;;5053010;28;20449;-75
2022/05/09 05:46:41;;;;;;;21.33;19.20;;;;;;;;;;5052971;28;20512;-75
2022/05/09 05:49:10;;;;;;;21.27;19.20;;;;;;;;;;5053443;28;20492;-77
2022/05/09 05:51:37;;;;;;;20.87;18.50;;;;;;;;;;5053292;28;20469;-75
2022/05/09 05:54:05;;;;;;;18.37;16.57;;;;;;;;;;5053644;28;20476;-77
2022/05/09 05:56:33;;;;;;;23.43;21.17;;;;;;;;;;5052998;28;20499;-77
2022/05/09 05:59:01;;;;;;;18.73;17.20;;;;;;;;;;5053281;28;20448;-77
2022/05/09 06:01:28;;;;;;;19.43;17.53;;;;;;;;;;5053218;28;20886;-76
2022/05/09 06:03:55;;;;;;;18.43;17.03;;;;;;;;;;5053258;28;20496;-76
2022/05/09 06:06:23;;;;;;;19.60;17.63;;;;;;;;;;5053115;28;20454;-75
2022/05/09 06:08:50;;;;;;;19.27;17.47;;;;;;;;;;5053046;28;20449;-78
2022/05/09 06:11:17;;;;;;;19.43;17.60;;;;;;;;;;5053427;28;20450;-77
2022/05/09 06:13:44;;;;;;;18.30;16.50;;;;;;;;;;5052402;28;20503;-75
2022/05/09 06:16:11;;;;;;;17.00;15.40;;;;;;;;;;5053145;28;20446;-76
2022/05/09 06:18:38;;;;;;;16.20;14.90;;;;;;;;;;5052684;28;20485;-76
2022/05/09 06:21:05;;;;;;;17.77;16.07;;;;;;;;;;5046446;28;20925;-76
2022/05/09 06:23:34;;;;;;;15.93;14.57;;;;;;;;;;5050772;28;20893;-75
2022/05/09 06:26:01;;;;;;;15.33;14.13;;;;;;;;;;5059872;28;20441;-76
2022/05/09 06:28:28;;;;;;;16.40;15.13;;;;;;;;;;5053645;28;20827;-78
2022/05/09 06:30:56;;;;;;;16.73;15.20;;;;;;;;;;5065911;28;20783;-77
2022/05/09 06:33:24;;;;;;;17.10;15.30;;;;;;;;;;5068956;28;20480;-77
2022/05/09 06:35:52;;;;;;;15.83;14.47;;;;;;;;;;5072488;28;20494;-75
2022/05/09 06:38:19;;;;;;;15.60;14.40;;;;;;;;;;5072201;28;20496;-75
2022/05/09 06:40:47;;;;;;;16.30;15.10;;;;;;;;;;5072289;28;20455;-75
2022/05/09 06:43:15;;;;;;;16.23;14.77;;;;;;;;;;5072405;28;20445;-76
2022/05/09 06:45:42;;;;;;;16.10;14.70;;;;;;;;;;5056190;28;20453;-75
2022/05/09 06:48:10;;;;;;;16.37;15.00;;;;;;;;;;5062314;28;20544;-76
2022/05/09 06:50:37;;;;;;;17.97;16.23;;;;;;;;;;5061150;28;20521;-76
2022/05/09 06:53:05;;;;;;;15.43;14.10;;;;;;;;;;5063237;28;20437;-75
2022/05/09 06:55:32;;;;;;;15.80;14.37;;;;;;;;;;5072015;28;20445;-77
2022/05/09 06:58:00;;;;;;;16.00;14.60;;;;;;;;;;5071900;28;20553;-75
2022/05/09 07:00:27;;;;;;;14.77;13.67;;;;;;;;;;5071896;28;20460;-76
2022/05/09 07:02:54;;;;;;;15.03;13.63;;;;;;;;;;5072568;28;20440;-75
2022/05/09 07:05:22;;;;;;;15.70;14.50;;;;;;;;;;5075919;28;20977;-75
2022/05/09 07:07:49;;;;;;;15.47;14.07;;;;;;;;;;5059580;28;20474;-75
2022/05/09 07:10:17;;;;;;;14.70;13.53;;;;;;;;;;5059182;28;20448;-75
2022/05/09 07:12:45;;;;;;;14.77;13.37;;;;;;;;;;5066514;28;20444;-74
2022/05/09 07:30:51;;;;;;;15.23;13.93;;;;;;;;;;4697471;29;20454;-76
2022/05/09 07:33:19;;;;;;;14.70;13.50;;;;;;;;;;4882251;29;20475;-75
2022/05/09 07:35:47;;;;;;;13.70;12.27;;;;;;;;;;4974041;28;20444;-74
2022/05/09 07:38:14;;;;;;;15.27;14.00;;;;;;;;;;5027849;28;20491;-75
2022/05/09 07:40:41;;;;;;;14.03;12.77;;;;;;;;;;5050406;28;20441;-75
2022/05/09 07:43:12;;;;;;;12.73;11.73;;;;;;;;;;5050193;28;20945;-75
2022/05/09 07:45:39;;;;;;;14.10;12.83;;;;;;;;;;5051024;28;20482;-76
2022/05/09 07:48:08;;;;;;;13.20;12.00;;;;;;;;;;5050169;28;20860;-76
2022/05/09 07:50:35;;;;;;;13.37;12.17;;;;;;;;;;5049749;28;20541;-75
2022/05/09 07:53:05;;;;;;;11.90;10.90;;;;;;;;;;5050640;28;20818;-75
2022/05/09 07:55:32;;;;;;;11.83;11.00;;;;;;;;;;5051254;28;20918;-74
2022/05/09 07:57:59;;;;;;;13.20;12.10;;;;;;;;;;5047038;28;20481;-75
2022/05/09 08:00:26;;;;;;;13.68;12.57;;;;;;;;;;5059329;28;20490;-74
2022/05/09 08:02:53;;;;;;;12.63;11.70;;;;;;;;;;5070779;28;20205;-76
2022/05/09 08:05:22;;;;;;;12.63;11.73;;;;;;;;;;5051804;28;20450;-76
2022/05/09 08:07:49;;;;;;;12.17;11.07;;;;;;;;;;5054572;28;20460;-75
2022/05/09 08:10:16;;;;;;;12.80;11.60;;;;;;;;;;5070960;28;20963;-76
2022/05/09 08:12:44;;;;;;;12.07;11.17;;;;;;;;;;5068143;28;20444;-75
2022/05/09 08:15:11;;;;;;;12.30;11.40;;;;;;;;;;5062673;28;20476;-76
2022/05/09 08:17:38;;;;;;;12.53;11.60;;;;;;;;;;5070829;28;20689;-76
2022/05/09 08:20:06;;;;;;;12.77;11.53;;;;;;;;;;5071557;28;20436;-75
2022/05/09 08:22:34;;;;;;;12.80;11.80;;;;;;;;;;5069512;28;20445;-75
2022/05/09 08:25:02;;;;;;;12.57;11.50;;;;;;;;;;5070789;28;20469;-75
2022/05/09 08:27:29;;;;;;;13.03;11.93;;;;;;;;;;5070934;28;20214;-74
2022/05/09 08:29:57;;;;;;;11.27;10.17;;;;;;;;;;5070935;28;20449;-75
2022/05/09 08:32:24;;;;;;;11.90;11.10;;;;;;;;;;5070342;28;20974;-75
2022/05/09 08:34:52;;;;;;;12.68;11.70;;;;;;;;;;5069586;28;20457;-75
2022/05/09 08:37:19;;;;;;;13.10;11.90;;;;;;;;;;5069923;28;20478;-74
2022/05/09 08:39:48;;;;;;;12.50;11.60;;;;;;;;;;5070122;28;20515;-75
2022/05/09 08:42:18;;;;;;;11.63;10.73;;;;;;;;;;5056788;28;20191;-75
2022/05/09 08:45:00;;;;;;;11.77;10.87;;;;;;;;;;5049916;28;20956;-75
2022/05/09 08:47:50;;;;;;;11.53;10.63;;;;;;;;;;5056406;28;20474;-75
2022/05/09 08:50:21;;;;;;;10.87;10.10;;;;;;;;;;5062205;28;20448;-75
2022/05/09 08:52:53;;;;;;;12.50;11.07;;;;;;;;;;5070494;28;20448;-75
2022/05/09 08:55:27;;;;;;;10.67;9.87;;;;;;;;;;5074376;28;20446;-76
2022/05/09 08:57:56;;;;;;;10.60;9.90;;;;;;;;;;5074137;28;20512;-76
2022/05/09 09:00:29;;;;;;;11.07;10.07;;;;;;;;;;5074023;28;20425;-77
2022/05/09 09:02:57;;;;;;;10.70;9.90;;;;;;;;;;5072542;28;20437;-76
2022/05/09 09:05:26;;;;;;;10.70;9.80;;;;;;;;;;5072865;28;20837;-77
2022/05/09 09:07:59;;;;;;;10.30;9.50;;;;;;;;;;5058693;28;20215;-78
2022/05/09 09:10:32;;;;;;;10.90;9.90;;;;;;;;;;5054124;28;20473;-75
2022/05/09 09:13:05;;;;;;;11.83;10.93;;;;;;;;;;5053911;28;20461;-76
2022/05/09 09:15:38;;;;;;;11.00;10.00;;;;;;;;;;5054569;28;20448;-75
2022/05/09 09:18:17;;;;;;;9.70;8.90;;;;;;;;;;5054067;28;20481;-77
2022/05/09 09:20:50;;;;;;;9.57;8.67;;;;;;;;;;5054075;28;20453;-76
2022/05/09 09:23:20;;;;;;;9.40;8.80;;;;;;;;;;5053185;28;20963;-76
2022/05/09 09:25:55;;;;;;;10.20;9.50;;;;;;;;;;5053965;28;20449;-76
2022/05/09 09:28:26;;;;;;;8.90;8.20;;;;;;;;;;5053924;28;20457;-76
2022/05/09 09:30:54;;;;;;;9.67;8.87;;;;;;;;;;5054189;28;20890;-75
2022/05/09 09:33:21;;;;;;;8.50;7.90;;;;;;;;;;5053722;28;20464;-74
2022/05/09 09:35:51;;;;;;;8.60;8.00;;;;;;;;;;5053708;28;20449;-75
2022/05/09 09:38:28;;;;;;;9.40;8.50;;;;;;;;;;5053672;28;20481;-75
2022/05/09 09:40:56;;;;;;;8.30;7.50;;;;;;;;;;5052539;28;20448;-76
2022/05/09 09:43:23;;;;;;;8.63;7.83;;;;;;;;;;5051926;28;20461;-75
2022/05/09 09:46:02;;;;;;;8.60;8.10;;;;;;;;;;5065118;28;20448;-74
2022/05/09 09:48:31;;;;;;;9.63;8.73;;;;;;;;;;5073540;28;20806;-76
2022/05/09 09:51:03;;;;;;;9.30;8.60;;;;;;;;;;5072654;28;20897;-75
2022/05/09 09:53:31;;;;;;;7.23;6.83;;;;;;;;;;5072362;28;20759;-74
2022/05/09 09:56:03;;;;;;;7.53;6.70;;;;;;;;;;5072087;28;20471;-74
2022/05/09 09:58:30;;;;;;;8.60;8.00;;;;;;;;;;5073026;28;20566;-75
2022/05/09 10:01:08;;;;;;;7.47;6.90;;;;;;;;;;5073639;28;20448;-75
2022/05/09 10:03:37;;;;;;;7.97;7.10;;;;;;;;;;5072948;28;20448;-75
2022/05/09 10:06:05;;;;;;;7.90;7.13;;;;;;;;;;5072483;28;20547;-75
2022/05/09 10:08:34;;;;;;;7.33;6.27;;;;;;;;;;5053215;28;20457;-77
2022/05/09 10:11:10;;;;;;;7.00;6.30;;;;;;;;;;5053463;28;20446;-75
2022/05/09 10:13:39;;;;;;;6.90;6.50;;;;;;;;;;5052902;28;20929;-74
2022/05/09 10:16:08;;;;;;;6.93;6.43;;;;;;;;;;5053255;28;20460;-78
2022/05/09 10:18:35;;;;;;;6.60;6.10;;;;;;;;;;5053104;28;20473;-76
2022/05/09 10:21:11;;;;;;;7.20;6.70;;;;;;;;;;5053065;28;20509;-75
2022/05/09 10:26:34;;;;;;;6.70;6.20;;;;;;;;;;5053183;28;20397;-76
2022/05/09 10:29:03;;;;;;;6.70;6.10;;;;;;;;;;5049630;28;20472;-75
2022/05/09 10:31:31;;;;;;;7.63;6.53;;;;;;;;;;5062987;28;20445;-74
2022/05/09 10:34:01;;;;;;;6.33;5.93;;;;;;;;;;5065338;28;20475;-74
2022/05/09 10:36:30;;;;;;;7.23;6.73;;;;;;;;;;5072312;28;20854;-75
2022/05/09 10:39:00;;;;;;;7.03;6.53;;;;;;;;;;5072463;28;20814;-75
2022/05/09 10:41:30;;;;;;;6.90;6.23;;;;;;;;;;5072155;28;20971;-75
2022/05/09 10:44:01;;;;;;;7.70;7.20;;;;;;;;;;5064748;28;20954;-76
2022/05/09 10:46:36;;;;;;;7.57;7.00;;;;;;;;;;5058729;28;20442;-75
2022/05/09 10:49:06;;;;;;;7.03;6.53;;;;;;;;;;5064058;28;20475;-76
2022/05/09 10:51:36;;;;;;;7.82;7.22;;;;;;;;;;5054324;28;20576;-76
2022/05/09 10:54:08;;;;;;;8.32;7.60;;;;;;;;;;5052021;28;20453;-75
2022/05/09 10:56:40;;;;;;;7.20;6.60;;;;;;;;;;5052154;28;20277;-75
2022/05/09 10:59:10;;;;;;;7.33;6.83;;;;;;;;;;5051957;28;20477;-75
2022/05/09 11:01:41;;;;;;;8.35;7.65;;;;;;;;;;5051579;28;20535;-75
2022/05/09 11:04:09;;;;;;;7.87;7.37;;;;;;;;;;5051686;28;20213;-74
2022/05/09 11:06:41;;;;;;;8.77;8.17;;;;;;;;;;5051769;28;20465;-76
2022/05/09 11:09:13;;;;;;;8.10;7.50;;;;;;;;;;5051728;28;20912;-76
2022/05/09 11:11:48;;;;;;;8.07;7.50;;;;;;;;;;5052132;28;20199;-75
2022/05/09 11:14:19;;;;;;;7.30;6.80;;;;;;;;;;5052076;28;20436;-75
2022/05/09 11:17:04;;;;;;;7.97;7.47;;;;;;;;;;5050139;28;20896;-74
2022/05/09 11:19:39;;;;;;;7.63;6.93;;;;;;;;;;5052101;28;20707;-75
2022/05/09 11:22:09;;;;;;;7.50;6.90;;;;;;;;;;5051902;28;20445;-75
2022/05/09 11:24:51;;;;;;;7.30;6.70;;;;;;;;;;5051635;28;20452;-76
2022/05/09 11:27:22;;;;;;;6.37;5.97;;;;;;;;;;5051913;28;20468;-74
2022/05/09 11:29:56;;;;;;;7.20;6.60;;;;;;;;;;5052120;28;20921;-75
2022/05/09 11:32:30;;;;;;;6.93;6.38;;;;;;;;;;5051029;28;20960;-75
2022/05/09 11:35:17;;;;;;;6.93;6.43;;;;;;;;;;5052604;28;20207;-76
2022/05/09 11:37:52;;;;;;;6.40;6.00;;;;;;;;;;5052535;28;20465;-75
2022/05/09 11:40:26;;;;;;;5.43;5.13;;;;;;;;;;5052085;28;20488;-76
2022/05/09 11:45:49;;;;;;;6.13;5.63;;;;;;;;;;5049552;28;20544;-76
2022/05/09 11:48:23;;;;;;;6.47;6.07;;;;;;;;;;5051362;28;20973;-75
2022/05/09 11:50:54;;;;;;;6.07;5.73;;;;;;;;;;5051359;28;20976;-75
2022/05/09 11:53:24;;;;;;;6.07;5.60;;;;;;;;;;5051408;28;20425;-75
2022/05/09 11:55:51;;;;;;;7.77;6.00;;;;;;;;;;5051465;28;20437;-76
2022/05/09 11:58:18;;;;;;;7.93;6.10;;;;;;;;;;5054892;28;20473;-75
2022/05/09 12:00:48;;;;;;;5.83;5.43;;;;;;;;;;5064348;28;20441;-74
2022/05/09 12:03:16;;;;;;;6.50;5.67;;;;;;;;;;5058663;28;20446;-75
2022/05/09 12:05:49;;;;;;;6.23;5.63;;;;;;;;;;5051231;28;20499;-76
2022/05/09 12:08:17;;;;;;;6.20;5.80;;;;;;;;;;5051301;28;20470;-76
2022/05/09 12:10:45;;;;;;;5.83;5.43;;;;;;;;;;5051227;28;20988;-76
2022/05/09 12:13:15;;;;;;;5.70;5.10;;;;;;;;;;5050485;28;20453;-76
2022/05/09 12:15:51;;;;;;;6.30;5.27;;;;;;;;;;5053858;28;20541;-75
2022/05/09 12:18:21;;;;;;;5.37;4.97;;;;;;;;;;5062237;28;20484;-75
2022/05/09 12:21:15;;;;;;;5.00;4.70;;;;;;;;;;5054475;28;20444;-76
2022/05/09 12:24:06;;;;;;;5.13;4.77;;;;;;;;;;5023670;28;20457;-73
2022/05/09 12:26:34;;;;;;;5.20;4.90;;;;;;;;;;5050284;28;20505;-75
2022/05/09 12:29:25;;;;;;;5.40;5.00;;;;;;;;;;5073308;28;20447;-76
2022/05/09 12:31:53;;;;;;;6.17;5.70;;;;;;;;;;5074673;28;20908;-76
2022/05/09 12:34:23;;;;;;;5.30;5.00;;;;;;;;;;5074664;28;20460;-75
2022/05/09 12:36:51;;;;;;;6.23;5.83;;;;;;;;;;5075302;28;20455;-75
2022/05/09 12:39:20;;;;;;;6.77;6.17;;;;;;;;;;5074955;28;20523;-75
2022/05/09 12:41:51;;;;;;;5.90;5.50;;;;;;;;;;5074420;28;20782;-75
2022/05/09 12:44:21;;;;;;;6.40;5.97;;;;;;;;;;5074918;28;20236;-75
2022/05/09 12:46:51;;;;;;;5.50;5.10;;;;;;;;;;5073541;28;20860;-75
2022/05/09 12:49:21;;;;;;;5.60;5.10;;;;;;;;;;5075078;28;20205;-74
2022/05/09 12:51:50;;;;;;;5.50;5.07;;;;;;;;;;5070845;28;20452;-75
2022/05/09 12:54:19;;;;;;;6.03;5.53;;;;;;;;;;5058690;28;20443;-74
2022/05/09 12:56:48;;;;;;;6.97;5.37;;;;;;;;;;5074265;28;20226;-75
2022/05/09 12:59:16;;;;;;;5.50;5.00;;;;;;;;;;5075108;28;21014;-73
2022/05/09 13:01:44;;;;;;;5.77;5.37;;;;;;;;;;5075077;28;20448;-73
2022/05/09 13:04:20;;;;;;;5.03;4.53;;;;;;;;;;5074751;28;20443;-74
2022/05/09 13:06:48;;;;;;;6.30;5.70;;;;;;;;;;5068617;28;20457;-74
2022/05/09 13:09:17;;;;;;;6.07;5.50;;;;;;;;;;5058775;28;20437;-74
2022/05/09 13:11:47;;;;;;;5.83;5.43;;;;;;;;;;5057211;28;20456;-74
2022/05/09 13:14:18;;;;;;;7.33;5.23;;;;;;;;;;5053995;28;20557;-74
2022/05/09 13:16:52;;;;;;;6.03;5.53;;;;;;;;;;5053920;28;20500;-74
2022/05/09 13:19:20;;;;;;;5.90;5.50;;;;;;;;;;5053014;28;20943;-75
2022/05/09 13:21:49;;;;;;;5.10;4.77;;;;;;;;;;5054607;28;20449;-74
2022/05/09 13:24:19;;;;;;;4.57;4.37;;;;;;;;;;5053733;28;20441;-73
2022/05/09 13:26:51;;;;;;;5.40;5.00;;;;;;;;;;5053848;28;20469;-75
2022/05/09 13:29:26;;;;;;;5.73;5.23;;;;;;;;;;5054020;28;20457;-74
2022/05/09 13:31:55;;;;;;;5.80;4.77;;;;;;;;;;5054263;28;20445;-75
2022/05/09 13:34:23;;;;;;;5.40;5.00;;;;;;;;;;5053521;28;20462;-75
2022/05/09 13:36:50;;;;;;;6.23;5.70;;;;;;;;;;5053704;28;20476;-75
2022/05/09 13:39:26;;;;;;;6.27;5.07;;;;;;;;;;5053287;28;20504;-74
2022/05/09 13:41:53;;;;;;;5.30;4.97;;;;;;;;;;5053806;28;20449;-74
2022/05/09 13:44:22;;;;;;;6.17;5.67;;;;;;;;;;5053911;28;20529;-75
2022/05/09 13:46:50;;;;;;;6.37;5.87;;;;;;;;;;5053546;28;20466;-75
2022/05/09 13:49:19;;;;;;;6.47;5.97;;;;;;;;;;5053856;28;20544;-75
2022/05/09 13:51:52;;;;;;;5.63;5.33;;;;;;;;;;5053340;28;20441;-75
2022/05/09 13:54:22;;;;;;;6.30;5.70;;;;;;;;;;5053254;28;20453;-74
2022/05/09 13:56:50;;;;;;;5.47;5.07;;;;;;;;;;5053509;28;20924;-75
2022/05/09 13:59:18;;;;;;;6.20;5.70;;;;;;;;;;5053612;28;20523;-75
2022/05/09 14:01:46;;;;;;;8.90;4.83;;;;;;;;;;5053686;28;20453;-75
2022/05/09 14:04:15;;;;;;;5.37;5.07;;;;;;;;;;5052663;28;20445;-75
2022/05/09 14:06:44;;;;;;;5.57;5.17;;;;;;;;;;5053471;28;20470;-75
2022/05/09 14:09:14;;;;;;;5.20;4.90;;;;;;;;;;5053118;28;20450;-74
2022/05/09 14:11:42;;;;;;;5.60;5.20;;;;;;;;;;5053121;28;20533;-75
2022/05/09 14:14:12;;;;;;;5.67;5.07;;;;;;;;;;5052703;28;20446;-75
2022/05/09 14:16:42;;;;;;;5.80;5.30;;;;;;;;;;5053583;28;20464;-75
2022/05/09 14:19:15;;;;;;;5.27;4.97;;;;;;;;;;5053072;28;20916;-74
2022/05/09 14:21:43;;;;;;;5.40;4.93;;;;;;;;;;5053184;28;20515;-75
2022/05/09 14:24:11;;;;;;;4.87;4.57;;;;;;;;;;5052568;28;20449;-74
2022/05/09 14:29:41;;;;;;;5.20;4.10;;;;;;;;;;5052873;28;20417;-74
2022/05/09 14:32:09;;;;;;;5.23;4.80;;;;;;;;;;5052908;28;20499;-76
2022/05/09 14:34:38;;;;;;;4.90;4.50;;;;;;;;;;5052557;28;20473;-75
2022/05/09 14:37:19;;;;;;;5.23;4.67;;;;;;;;;;5053019;28;20461;-74
2022/05/09 14:39:47;;;;;;;5.30;4.90;;;;;;;;;;5055079;28;20522;-74
2022/05/09 14:42:16;;;;;;;6.00;5.50;;;;;;;;;;5054973;28;20449;-76
2022/05/09 14:44:45;;;;;;;5.57;5.13;;;;;;;;;;5055175;28;20450;-74
2022/05/09 14:47:15;;;;;;;5.27;4.87;;;;;;;;;;5055530;28;20599;-75
2022/05/09 14:49:43;;;;;;;5.20;4.90;;;;;;;;;;5054143;28;20691;-74
2022/05/09 14:52:13;;;;;;;5.77;5.20;;;;;;;;;;5052113;28;20452;-74
2022/05/09 14:54:42;;;;;;;5.67;5.17;;;;;;;;;;5052583;28;20815;-74
2022/05/09 14:57:26;;;;;;;5.10;4.80;;;;;;;;;;5054665;28;20457;-75
2022/05/09 14:59:59;;;;;;;5.70;5.30;;;;;;;;;;5054470;28;21063;-74
2022/05/09 15:02:29;;;;;;;5.00;4.60;;;;;;;;;;5054878;28;20454;-74
2022/05/09 15:04:56;;;;;;;5.90;4.93;;;;;;;;;;5055728;28;20587;-75
2022/05/09 15:07:23;;;;;;;5.90;5.40;;;;;;;;;;5054979;28;20464;-75
2022/05/09 15:09:50;;;;;;;5.63;5.23;;;;;;;;;;5052590;28;20450;-74
2022/05/09 15:12:19;;;;;;;5.33;4.93;;;;;;;;;;5052710;28;20445;-76
2022/05/09 15:14:47;;;;;;;5.57;5.17;;;;;;;;;;5052283;28;20448;-76
2022/05/09 15:17:15;;;;;;;5.90;5.40;;;;;;;;;;5051880;28;20512;-75
2022/05/09 15:19:42;;;;;;;5.60;5.20;;;;;;;;;;5051758;28;20732;-76
2022/05/09 15:22:12;;;;;;;5.40;5.00;;;;;;;;;;5052366;28;20446;-75